Time;durP1;ratioP1;P1;durP2;ratioP2;P2;SDS_P1;SDS_P2;PMS_P1;PMS_P2;Temp;Humidity;BMP_temperature;BMP_pressure;BME280_temperature;BME280_humidity;BME280_pressure;Samples;Min_cycle;Max_cycle;Signal;HPM_P1;HPM_P2
2021/03/27 00:02:56;;;;;;;1.63;0.40;;;6.20;99.90;;;;;;10404259;28;20125;-49
2021/03/27 00:08:25;;;;;;;1.00;0.28;;;6.10;99.90;;;;;;10400919;28;20109;-49
2021/03/27 00:14:03;;;;;;;0.50;0.20;;;6.00;99.90;;;;;;10401368;28;20560;-50
2021/03/27 00:19:37;;;;;;;1.05;0.20;;;6.10;99.90;;;;;;10395629;28;20072;-49
2021/03/27 00:25:14;;;;;;;0.63;0.20;;;6.30;99.90;;;;;;10367896;28;20034;-50
2021/03/27 00:30:44;;;;;;;1.23;0.45;;;6.30;99.90;;;;;;10360191;28;20071;-50
2021/03/27 00:36:13;;;;;;;0.75;0.30;;;6.20;99.90;;;;;;10364449;28;20033;-50
2021/03/27 00:41:38;;;;;;;0.35;0.15;;;6.10;99.90;;;;;;10367375;28;20695;-50
2021/03/27 00:47:01;;;;;;;1.45;0.40;;;6.10;99.90;;;;;;10366673;28;20053;-49
2021/03/27 00:52:23;;;;;;;0.75;0.28;;;6.10;99.90;;;;;;10366208;28;20037;-50
2021/03/27 00:57:53;;;;;;;1.15;0.25;;;6.00;99.90;;;;;;10363850;28;20075;-50
2021/03/27 01:03:20;;;;;;;1.75;0.50;;;6.10;99.90;;;;;;10363118;28;20069;-50
2021/03/27 01:08:46;;;;;;;1.13;0.47;;;6.00;99.90;;;;;;10365677;28;20184;-50
2021/03/27 01:14:15;;;;;;;1.55;0.30;;;6.20;99.90;;;;;;10360013;28;20460;-50
2021/03/27 01:19:42;;;;;;;0.15;0.10;;;6.10;99.90;;;;;;10401543;28;20041;-50
2021/03/27 01:25:06;;;;;;;1.42;0.20;;;6.20;99.90;;;;;;10400166;28;20093;-50
2021/03/27 01:31:11;;;;;;;0.20;0.10;;;6.20;99.90;;;;;;10392339;28;20042;-50
2021/03/27 01:36:45;;;;;;;0.28;0.10;;;6.10;99.90;;;;;;10383385;28;20286;-50
2021/03/27 01:42:24;;;;;;;4.00;0.47;;;6.10;99.90;;;;;;10387623;28;20072;-50
2021/03/27 01:47:48;;;;;;;;;;;6.00;99.90;;;;;;10381767;28;20053;-49
2021/03/27 01:53:09;;;;;;;0.68;0.30;;;6.00;99.90;;;;;;10398578;28;20036;-49
2021/03/27 01:58:45;;;;;;;0.50;0.20;;;5.90;99.90;;;;;;10386029;28;20412;-50
2021/03/27 02:04:13;;;;;;;1.73;0.43;;;5.70;99.90;;;;;;10375818;28;20128;-50
2021/03/27 02:09:54;;;;;;;6.35;0.43;;;5.60;99.90;;;;;;10368391;28;20037;-50
2021/03/27 02:15:20;;;;;;;4.68;1.23;;;5.50;99.90;;;;;;10359359;28;20077;-50
2021/03/27 02:20:50;;;;;;;2.50;0.57;;;5.50;99.90;;;;;;10404835;28;20080;-50
2021/03/27 02:26:17;;;;;;;1.70;0.50;;;5.50;99.90;;;;;;10409141;28;20045;-50
2021/03/27 02:31:41;;;;;;;8.60;1.00;;;5.30;99.90;;;;;;10388800;28;20041;-49
2021/03/27 02:37:41;;;;;;;3.38;0.93;;;5.40;99.90;;;;;;10404799;28;20038;-50
2021/03/27 02:43:02;;;;;;;1.88;0.75;;;5.40;99.90;;;;;;10356595;28;20058;-50
2021/03/27 02:48:56;;;;;;;4.90;1.30;;;5.50;99.90;;;;;;10405926;28;20556;-50
2021/03/27 02:54:26;;;;;;;5.68;1.23;;;5.50;99.90;;;;;;10393624;28;20045;-49
2021/03/27 03:00:06;;;;;;;1.48;0.82;;;5.60;99.90;;;;;;10408728;28;20037;-50
2021/03/27 03:05:48;;;;;;;2.92;1.45;;;5.60;99.90;;;;;;10377077;28;20136;-50
2021/03/27 03:11:14;;;;;;;2.65;0.70;;;5.80;99.90;;;;;;10407509;28;20096;-50
2021/03/27 03:17:15;;;;;;;3.15;0.98;;;5.60;99.90;;;;;;10398828;28;20099;-49
2021/03/27 03:22:42;;;;;;;3.65;0.45;;;5.60;99.90;;;;;;10404330;28;20048;-50
2021/03/27 03:28:28;;;;;;;8.70;1.65;;;5.70;99.90;;;;;;10406952;28;20076;-50
2021/03/27 03:34:06;;;;;;;2.83;1.00;;;5.80;99.90;;;;;;10391605;28;20504;-50
2021/03/27 03:39:49;;;;;;;3.95;0.90;;;5.80;99.90;;;;;;10405128;28;20049;-50
2021/03/27 03:45:34;;;;;;;7.70;1.52;;;5.80;99.90;;;;;;10396685;28;20256;-50
2021/03/27 03:51:04;;;;;;;2.08;0.88;;;5.90;99.90;;;;;;10393931;28;20517;-50
2021/03/27 03:56:25;;;;;;;1.50;0.60;;;6.00;99.90;;;;;;10404798;28;20033;-50
2021/03/27 04:01:57;;;;;;;1.83;0.70;;;5.90;99.90;;;;;;10404888;28;20025;-50
2021/03/27 04:07:26;;;;;;;1.83;0.60;;;6.10;99.90;;;;;;10398246;28;20045;-50
2021/03/27 04:12:55;;;;;;;2.63;0.75;;;6.10;99.90;;;;;;10398618;28;20223;-50
2021/03/27 04:18:37;;;;;;;1.25;0.50;;;6.00;99.90;;;;;;10379306;28;20139;-51
2021/03/27 04:24:03;;;;;;;3.63;0.35;;;6.10;99.90;;;;;;10397607;28;20051;-51
2021/03/27 04:29:33;;;;;;;4.38;1.00;;;5.90;99.90;;;;;;10400968;28;20048;-51
2021/03/27 04:35:13;;;;;;;3.65;0.17;;;6.00;99.90;;;;;;10398448;28;20039;-51
2021/03/27 04:40:45;;;;;;;0.73;0.30;;;6.10;99.90;;;;;;10402788;28;20485;-51
2021/03/27 04:46:28;;;;;;;3.40;0.20;;;6.00;99.90;;;;;;10401214;28;20060;-51
2021/03/27 04:51:54;;;;;;;0.57;0.20;;;6.10;99.90;;;;;;10394022;28;20034;-51
2021/03/27 04:57:30;;;;;;;6.10;1.73;;;6.20;99.90;;;;;;10398355;28;20029;-51
2021/03/27 05:03:33;;;;;;;1.13;0.30;;;6.10;99.90;;;;;;10394530;28;20068;-51
2021/03/27 05:09:00;;;;;;;1.58;0.88;;;5.90;99.90;;;;;;10388200;28;20037;-51
2021/03/27 05:14:37;;;;;;;2.33;0.57;;;6.00;99.90;;;;;;10387609;28;20115;-51
2021/03/27 05:20:20;;;;;;;1.35;0.47;;;5.90;99.90;;;;;;10381387;28;20541;-51
2021/03/27 05:25:44;;;;;;;8.02;1.52;;;5.90;99.90;;;;;;10380757;28;20041;-51
2021/03/27 05:31:22;;;;;;;1.42;0.98;;;6.00;99.90;;;;;;10396875;28;20252;-51
2021/03/27 05:37:02;;;;;;;0.60;0.30;;;6.10;99.90;;;;;;10379186;28;20040;-50
2021/03/27 05:42:43;;;;;;;0.10;0.00;;;6.10;99.90;;;;;;10364103;28;20073;-51
2021/03/27 05:48:24;;;;;;;0.85;0.50;;;5.90;99.90;;;;;;10376011;28;20441;-50
2021/03/27 05:53:57;;;;;;;0.85;0.22;;;5.70;99.90;;;;;;10372993;28;20037;-51
2021/03/27 05:59:40;;;;;;;2.53;0.20;;;5.60;99.90;;;;;;10367327;28;20045;-51
2021/03/27 06:05:41;;;;;;;0.52;0.13;;;5.50;99.90;;;;;;10386933;28;20042;-51
2021/03/27 06:11:23;;;;;;;0.77;0.38;;;5.40;99.90;;;;;;10386451;28;20057;-50
2021/03/27 06:17:13;;;;;;;1.10;0.30;;;5.30;99.90;;;;;;10344193;28;20052;-50
2021/03/27 06:22:52;;;;;;;0.75;0.20;;;5.30;99.90;;;;;;10399232;28;20469;-51
2021/03/27 06:28:52;;;;;;;0.20;0.10;;;5.30;99.90;;;;;;10400145;28;20102;-51
2021/03/27 06:34:33;;;;;;;3.47;0.23;;;5.50;99.90;;;;;;10392465;28;20053;-51
2021/03/27 06:40:09;;;;;;;1.30;0.93;;;5.60;99.90;;;;;;10379476;28;20056;-51
2021/03/27 06:45:45;;;;;;;8.23;0.30;;;5.70;99.90;;;;;;10392995;28;20136;-50
2021/03/27 06:51:25;;;;;;;0.22;0.05;;;5.70;99.90;;;;;;10365236;28;20484;-51
2021/03/27 06:57:02;;;;;;;3.72;0.60;;;5.90;99.90;;;;;;10407981;28;20068;-51
2021/03/27 07:03:01;;;;;;;1.17;0.35;;;6.10;99.90;;;;;;10383186;28;20495;-51
2021/03/27 07:08:45;;;;;;;1.08;0.30;;;6.30;99.90;;;;;;10407871;28;20051;-51
2021/03/27 07:14:28;;;;;;;3.20;0.50;;;6.40;99.90;;;;;;10402142;28;20081;-51
2021/03/27 07:19:58;;;;;;;3.70;1.17;;;6.50;99.90;;;;;;10427199;28;20548;-51
2021/03/27 07:25:52;;;;;;;0.95;0.40;;;6.60;99.90;;;;;;10389926;28;20306;-51
2021/03/27 07:31:44;;;;;;;2.17;0.80;;;6.70;99.90;;;;;;10380745;28;20061;-51
2021/03/27 07:37:35;;;;;;;3.38;1.00;;;6.90;99.90;;;;;;10403650;28;20044;-51
2021/03/27 07:43:15;;;;;;;1.45;0.40;;;7.10;99.90;;;;;;10394695;28;20643;-51
2021/03/27 07:48:57;;;;;;;4.38;0.38;;;7.30;99.90;;;;;;10387553;28;20045;-51
2021/03/27 07:54:29;;;;;;;0.88;0.25;;;7.50;99.90;;;;;;10395788;28;20783;-50
2021/03/27 08:00:28;;;;;;;1.40;0.43;;;8.10;99.90;;;;;;10393611;28;20042;-51
2021/03/27 08:06:11;;;;;;;0.43;0.15;;;8.00;99.90;;;;;;10394451;28;20076;-51
2021/03/27 08:11:53;;;;;;;1.55;0.30;;;7.20;99.90;;;;;;10362500;28;20037;-51
2021/03/27 08:17:32;;;;;;;1.25;1.13;;;6.40;99.90;;;;;;10399028;28;20360;-51
2021/03/27 08:23:09;;;;;;;1.95;0.60;;;6.00;99.90;;;;;;10388604;28;20359;-51
2021/03/27 08:28:49;;;;;;;3.10;1.15;;;5.90;99.90;;;;;;10379463;28;20509;-51
2021/03/27 08:34:17;;;;;;;1.17;0.82;;;6.10;99.90;;;;;;10392515;28;20047;-51
2021/03/27 08:40:13;;;;;;;2.20;0.63;;;6.90;99.90;;;;;;10397535;28;20033;-51
2021/03/27 08:46:01;;;;;;;6.05;0.73;;;7.30;99.90;;;;;;10369156;28;20492;-51
2021/03/27 08:51:46;;;;;;;1.75;0.40;;;7.10;99.90;;;;;;10371394;28;20060;-51
2021/03/27 08:57:41;;;;;;;4.32;0.30;;;7.20;99.90;;;;;;10386607;28;20531;-51
2021/03/27 09:03:26;;;;;;;2.95;0.30;;;7.80;99.90;;;;;;10375260;28;20041;-51
2021/03/27 09:09:20;;;;;;;2.50;0.47;;;8.00;99.90;;;;;;10369992;28;20861;-51
2021/03/27 09:14:53;;;;;;;6.35;0.50;;;8.00;99.90;;;;;;10402031;28;20056;-51
2021/03/27 09:20:35;;;;;;;0.13;0.05;;;8.30;99.90;;;;;;10410155;28;20778;-51
2021/03/27 09:26:15;;;;;;;0.98;0.40;;;8.60;99.90;;;;;;10388149;28;20048;-51
2021/03/27 09:31:42;;;;;;;1.30;0.52;;;9.00;99.90;;;;;;10412941;28;20041;-51
2021/03/27 09:37:36;;;;;;;1.75;0.10;;;9.10;99.90;;;;;;10378495;28;20038;-51
2021/03/27 09:43:19;;;;;;;0.60;0.20;;;9.60;99.90;;;;;;10379096;28;20036;-51
2021/03/27 09:48:59;;;;;;;2.60;0.43;;;9.40;99.90;;;;;;10369455;28;20095;-51
2021/03/27 09:54:41;;;;;;;2.80;0.50;;;9.50;99.90;;;;;;10388132;28;20045;-51
2021/03/27 10:00:23;;;;;;;3.65;0.80;;;9.70;99.90;;;;;;10425690;28;20037;-51
2021/03/27 10:06:33;;;;;;;3.78;0.40;;;9.70;99.90;;;;;;10432931;28;20439;-51
2021/03/27 10:12:17;;;;;;;0.70;0.35;;;9.40;99.90;;;;;;10420028;28;20064;-51
2021/03/27 10:17:43;;;;;;;3.90;0.73;;;9.80;99.90;;;;;;10379229;28;20404;-51
2021/03/27 10:23:36;;;;;;;1.35;0.30;;;9.50;99.90;;;;;;10390158;28;20041;-51
2021/03/27 10:29:06;;;;;;;0.22;0.10;;;9.10;99.90;;;;;;10431864;28;20477;-51
2021/03/27 10:34:39;;;;;;;3.15;0.40;;;9.50;99.90;;;;;;10428311;28;20140;-51
2021/03/27 10:40:21;;;;;;;1.13;0.20;;;9.90;99.90;;;;;;10421982;28;20041;-51
2021/03/27 10:46:03;;;;;;;3.22;0.60;;;9.40;99.90;;;;;;10419965;28;20041;-51
2021/03/27 10:52:01;;;;;;;3.00;0.70;;;9.10;99.90;;;;;;10422893;28;20037;-51
2021/03/27 10:57:50;;;;;;;2.60;0.38;;;8.90;99.90;;;;;;10424645;28;20021;-51
2021/03/27 11:03:30;;;;;;;1.03;0.83;;;8.90;99.90;;;;;;10419742;28;20047;-51
2021/03/27 11:09:16;;;;;;;7.50;0.47;;;9.50;99.90;;;;;;10425017;28;20045;-51
2021/03/27 11:14:49;;;;;;;2.65;0.40;;;9.80;99.90;;;;;;10438992;28;20049;-51
2021/03/27 11:20:47;;;;;;;6.63;1.35;;;9.40;99.90;;;;;;10442234;28;20067;-51
2021/03/27 11:26:44;;;;;;;5.05;0.50;;;9.40;99.90;;;;;;10439226;28;20056;-51
2021/03/27 11:32:10;;;;;;;2.90;0.80;;;9.30;99.90;;;;;;10440343;28;20025;-51
2021/03/27 11:37:43;;;;;;;0.57;0.22;;;9.10;99.90;;;;;;10424445;28;20025;-51
2021/03/27 11:43:13;;;;;;;0.75;0.25;;;8.90;99.90;;;;;;10400148;28;20448;-51
2021/03/27 11:48:47;;;;;;;0.77;0.40;;;9.20;99.90;;;;;;10440006;28;20131;-52
2021/03/27 11:54:46;;;;;;;1.83;0.40;;;9.50;99.90;;;;;;10441090;28;20033;-51
2021/03/27 12:06:19;;;;;;;3.88;0.73;;;9.40;99.90;;;;;;10425069;28;20032;-51
2021/03/27 12:11:52;;;;;;;5.28;0.93;;;9.30;99.90;;;;;;10439724;28;20033;-51
2021/03/27 12:17:16;;;;;;;4.28;0.52;;;9.60;99.90;;;;;;10439464;28;20098;-51
2021/03/27 12:22:43;;;;;;;6.93;1.08;;;10.00;99.90;;;;;;10438547;28;20032;-51
2021/03/27 12:28:33;;;;;;;1.38;0.68;;;10.10;99.90;;;;;;10429884;28;20110;-51
2021/03/27 12:34:03;;;;;;;1.52;0.73;;;10.60;99.90;;;;;;10434695;28;20477;-51
2021/03/27 12:39:48;;;;;;;2.85;0.50;;;12.10;99.90;;;;;;10398172;28;20042;-52
2021/03/27 12:45:34;;;;;;;3.78;0.80;;;11.50;99.90;;;;;;10397664;28;20037;-51
2021/03/27 12:51:14;;;;;;;1.35;0.20;;;12.10;99.90;;;;;;10425000;28;20040;-51
2021/03/27 12:56:41;;;;;;;7.95;0.60;;;11.50;99.90;;;;;;10438871;28;20061;-51
2021/03/27 13:02:12;;;;;;;1.75;0.98;;;11.20;99.90;;;;;;10436994;28;20661;-51
2021/03/27 13:07:59;;;;;;;4.82;0.70;;;10.90;99.90;;;;;;10435298;28;20619;-52
2021/03/27 13:14:05;;;;;;;4.97;0.40;;;11.80;99.90;;;;;;10379733;28;20037;-51
2021/03/27 13:19:40;;;;;;;3.33;0.52;;;12.50;99.90;;;;;;10423569;28;20087;-51
2021/03/27 13:25:18;;;;;;;2.53;0.57;;;12.60;99.90;;;;;;10405511;28;20037;-51
2021/03/27 13:31:12;;;;;;;5.20;0.60;;;13.10;99.90;;;;;;10410236;28;20040;-51
2021/03/27 13:37:04;;;;;;;4.68;0.63;;;11.60;99.90;;;;;;10436030;28;20029;-51
2021/03/27 13:42:31;;;;;;;2.83;0.40;;;10.80;99.90;;;;;;10435935;28;20044;-51
2021/03/27 13:48:32;;;;;;;7.57;1.45;;;11.80;99.90;;;;;;10420033;28;20037;-51
2021/03/27 13:54:08;;;;;;;1.48;0.75;;;12.10;99.90;;;;;;10413636;28;20034;-51
2021/03/27 13:59:51;;;;;;;3.05;0.85;;;12.00;99.90;;;;;;10395153;28;20034;-51
2021/03/27 14:05:35;;;;;;;4.45;0.98;;;13.90;99.80;;;;;;10435024;28;20128;-51
2021/03/27 14:11:15;;;;;;;0.70;0.35;;;12.80;99.90;;;;;;10434789;28;20044;-51
2021/03/27 14:17:10;;;;;;;4.07;0.90;;;12.00;99.90;;;;;;10439166;28;20745;-51
2021/03/27 14:22:52;;;;;;;3.10;0.25;;;12.70;99.90;;;;;;10443540;28;20468;-51
2021/03/27 14:28:21;;;;;;;1.48;0.30;;;12.80;99.90;;;;;;10424682;28;20049;-50
2021/03/27 14:33:56;;;;;;;3.55;0.65;;;12.60;99.90;;;;;;10443727;28;20443;-51
2021/03/27 14:40:04;;;;;;;2.35;0.80;;;12.00;99.90;;;;;;10424129;28;20144;-50
2021/03/27 14:45:34;;;;;;;2.65;0.60;;;11.50;99.90;;;;;;10441144;28;20021;-51
2021/03/27 14:51:20;;;;;;;3.15;0.45;;;11.30;99.90;;;;;;10443160;28;20063;-50
2021/03/27 14:56:43;;;;;;;3.30;0.55;;;11.00;99.90;;;;;;10427601;28;20500;-50
2021/03/27 15:02:30;;;;;;;2.78;0.32;;;11.10;99.90;;;;;;10441570;28;20397;-51
2021/03/27 15:08:04;;;;;;;3.97;0.30;;;11.30;99.90;;;;;;10435664;28;20072;-51
2021/03/27 15:13:28;;;;;;;2.10;1.00;;;11.70;99.90;;;;;;10428969;28;20065;-50
2021/03/27 15:19:11;;;;;;;2.25;0.68;;;11.20;99.90;;;;;;10399782;28;20126;-50
2021/03/27 15:30:42;;;;;;;4.72;0.77;;;10.80;99.90;;;;;;10437040;28;20041;-50
2021/03/27 15:36:27;;;;;;;8.52;1.13;;;10.80;99.90;;;;;;10431834;28;20041;-50
2021/03/27 15:42:10;;;;;;;2.35;0.73;;;10.50;99.90;;;;;;10440302;28;20021;-50
2021/03/27 15:47:40;;;;;;;2.65;1.13;;;10.20;99.90;;;;;;10407614;28;20041;-50
2021/03/27 15:53:16;;;;;;;;;;;9.90;99.90;;;;;;10401253;28;20134;-50
2021/03/27 15:59:29;;;;;;;1.85;0.60;;;10.00;99.90;;;;;;10396266;28;19917;-50
2021/03/27 16:05:00;;;;;;;2.50;0.43;;;9.90;99.90;;;;;;10391627;28;20042;-50
2021/03/27 16:10:35;;;;;;;6.57;0.98;;;9.90;99.90;;;;;;10405063;28;20060;-50
2021/03/27 16:16:17;;;;;;;4.68;1.25;;;10.00;99.90;;;;;;10404639;28;20041;-50
2021/03/27 16:21:50;;;;;;;5.32;0.73;;;9.90;99.90;;;;;;10419278;28;20041;-50
2021/03/27 16:27:17;;;;;;;3.40;0.65;;;10.00;99.90;;;;;;10439488;28;20091;-50
2021/03/27 16:33:12;;;;;;;0.88;0.35;;;10.10;99.90;;;;;;10438662;28;20461;-50
2021/03/27 16:38:55;;;;;;;2.22;0.47;;;10.00;99.90;;;;;;10419943;28;20038;-50
2021/03/27 16:44:25;;;;;;;0.73;0.22;;;9.60;99.90;;;;;;10425866;28;20678;-50
2021/03/27 16:50:08;;;;;;;1.00;0.40;;;9.50;99.90;;;;;;10424914;28;20037;-50
2021/03/27 16:55:39;;;;;;;4.93;1.55;;;9.40;99.90;;;;;;10431425;28;20037;-50
2021/03/27 17:01:41;;;;;;;3.95;0.50;;;9.30;99.90;;;;;;10439351;28;20040;-50
2021/03/27 17:07:16;;;;;;;2.15;0.65;;;9.20;99.90;;;;;;10407974;28;20075;-50
2021/03/27 17:13:01;;;;;;;2.97;1.15;;;9.10;99.90;;;;;;10427109;28;20068;-50
2021/03/27 17:18:55;;;;;;;5.50;1.35;;;9.00;99.90;;;;;;10436593;28;20064;-50
2021/03/27 17:24:27;;;;;;;3.40;0.80;;;8.90;99.90;;;;;;10419938;28;20068;-50
2021/03/27 17:30:13;;;;;;;5.82;0.90;;;8.90;99.90;;;;;;10431210;28;20037;-50
2021/03/27 17:35:49;;;;;;;1.65;0.80;;;8.80;99.90;;;;;;10419970;28;20044;-50
2021/03/27 17:41:32;;;;;;;2.17;1.10;;;8.70;99.90;;;;;;10427836;28;20041;-50
2021/03/27 17:47:12;;;;;;;1.17;0.50;;;8.60;99.90;;;;;;10425780;28;20378;-50
2021/03/27 17:52:47;;;;;;;2.38;1.02;;;8.50;99.90;;;;;;10435090;28;20055;-50
2021/03/27 17:58:20;;;;;;;0.85;0.47;;;8.30;99.90;;;;;;10434733;28;20037;-50
2021/03/27 18:04:00;;;;;;;2.83;1.80;;;8.20;99.90;;;;;;10427662;28;20034;-50
2021/03/27 18:09:24;;;;;;;2.38;0.60;;;8.20;99.90;;;;;;10411630;28;20609;-50
2021/03/27 18:15:05;;;;;;;3.08;0.80;;;8.10;99.90;;;;;;10430593;28;20135;-50
2021/03/27 18:20:37;;;;;;;1.55;0.65;;;8.00;99.90;;;;;;10408101;28;20530;-50
2021/03/27 18:26:11;;;;;;;3.05;1.27;;;8.00;99.90;;;;;;10415823;28;20033;-50
2021/03/27 18:31:45;;;;;;;9.45;2.60;;;7.80;99.90;;;;;;10417789;28;20477;-50
2021/03/27 18:37:16;;;;;;;2.47;0.88;;;7.90;99.90;;;;;;10416333;28;20500;-50
2021/03/27 18:42:36;;;;;;;3.10;0.85;;;7.70;99.90;;;;;;10427020;28;20094;-50
2021/03/27 18:48:10;;;;;;;2.75;0.45;;;7.60;99.90;;;;;;10434824;28;20429;-50
2021/03/27 18:53:34;;;;;;;2.67;1.25;;;7.60;99.90;;;;;;10434633;28;20124;-50
2021/03/27 18:59:25;;;;;;;4.00;1.13;;;7.50;99.90;;;;;;10436825;28;20392;-50
2021/03/27 19:04:56;;;;;;;1.60;0.50;;;7.40;99.90;;;;;;10433313;28;20044;-50
2021/03/27 19:10:27;;;;;;;1.13;0.68;;;7.40;99.90;;;;;;10431016;28;20030;-50
2021/03/27 19:16:12;;;;;;;2.72;0.95;;;7.30;99.90;;;;;;10423874;28;20052;-50
2021/03/27 19:21:50;;;;;;;2.13;0.40;;;7.20;99.90;;;;;;10392298;28;20029;-50
2021/03/27 19:27:18;;;;;;;1.35;0.60;;;7.20;99.90;;;;;;10401576;28;20037;-50
2021/03/27 19:32:40;;;;;;;3.33;0.45;;;7.10;99.90;;;;;;10426119;28;20025;-50
2021/03/27 19:38:02;;;;;;;2.30;0.57;;;7.00;99.90;;;;;;10439802;28;20036;-50
2021/03/27 19:44:01;;;;;;;4.65;0.95;;;7.00;99.90;;;;;;10414168;28;20033;-50
2021/03/27 19:49:27;;;;;;;1.27;0.57;;;7.00;99.90;;;;;;10436867;28;20049;-50
2021/03/27 19:55:10;;;;;;;8.63;1.98;;;7.00;99.90;;;;;;10433243;28;20048;-50
2021/03/27 20:00:36;;;;;;;4.72;1.05;;;7.00;99.90;;;;;;10438323;28;20693;-50
2021/03/27 20:06:07;;;;;;;1.05;0.57;;;7.00;99.90;;;;;;10441861;28;20037;-50
2021/03/27 20:11:34;;;;;;;3.67;0.90;;;6.90;99.90;;;;;;10430923;28;20040;-50
2021/03/27 20:17:07;;;;;;;5.55;1.10;;;6.80;99.90;;;;;;10421259;28;20038;-50
2021/03/27 20:22:40;;;;;;;3.38;0.70;;;6.80;99.90;;;;;;10398460;28;20044;-50
2021/03/27 20:28:26;;;;;;;8.15;0.80;;;6.70;99.90;;;;;;10407508;28;20253;-50
2021/03/27 20:34:14;;;;;;;4.88;1.20;;;6.70;99.90;;;;;;10424925;28;20055;-50
2021/03/27 20:40:06;;;;;;;5.57;0.60;;;6.80;99.90;;;;;;10437203;28;20072;-50
2021/03/27 20:45:34;;;;;;;6.55;1.27;;;6.70;99.90;;;;;;10433024;28;20123;-50
2021/03/27 20:51:01;;;;;;;1.83;1.08;;;6.70;99.90;;;;;;10438781;28;20033;-50
2021/03/27 20:56:41;;;;;;;1.55;0.70;;;6.60;99.90;;;;;;10420658;28;20504;-50
2021/03/27 21:02:16;;;;;;;;;;;6.70;99.90;;;;;;10427224;28;20541;-50
2021/03/27 21:07:59;;;;;;;7.32;1.20;;;6.70;99.90;;;;;;10416309;28;19917;-50
2021/03/27 21:13:36;;;;;;;1.58;0.57;;;6.70;99.90;;;;;;10427304;28;20045;-50
2021/03/27 21:19:29;;;;;;;4.47;0.63;;;6.80;99.90;;;;;;10436906;28;20429;-50
2021/03/27 21:25:37;;;;;;;3.20;1.08;;;6.90;99.90;;;;;;10423603;28;20033;-50
2021/03/27 21:31:22;;;;;;;3.58;1.17;;;6.80;99.90;;;;;;10348288;28;20451;-50
2021/03/27 21:37:10;;;;;;;3.50;1.58;;;6.90;99.90;;;;;;10424863;28;20112;-50
2021/03/27 21:42:37;;;;;;;1.80;1.00;;;6.90;99.90;;;;;;10427964;28;20067;-50
2021/03/27 21:48:03;;;;;;;4.35;1.08;;;7.10;99.90;;;;;;10435830;28;21131;-50
2021/03/27 21:54:09;;;;;;;2.67;0.63;;;7.00;99.90;;;;;;10407337;28;20029;-50
2021/03/27 21:59:42;;;;;;;4.95;0.80;;;7.00;99.90;;;;;;10419986;28;20037;-50
2021/03/27 22:05:27;;;;;;;8.05;1.02;;;7.00;99.90;;;;;;10430640;28;20029;-50
2021/03/27 22:10:50;;;;;;;2.10;1.00;;;7.00;99.90;;;;;;10429603;28;20046;-50
2021/03/27 22:16:47;;;;;;;4.95;1.10;;;7.00;99.90;;;;;;10422200;28;20047;-50
2021/03/27 22:22:45;;;;;;;6.78;1.73;;;7.10;99.90;;;;;;10417000;28;20538;-50
2021/03/27 22:28:50;;;;;;;2.30;0.75;;;7.20;99.90;;;;;;10435598;28;20124;-50
2021/03/27 22:34:21;;;;;;;3.53;1.05;;;7.20;99.90;;;;;;10419400;28;20040;-50
2021/03/27 22:39:47;;;;;;;1.35;0.43;;;7.30;99.90;;;;;;10443013;28;20037;-50
2021/03/27 22:45:20;;;;;;;2.25;0.50;;;7.40;99.90;;;;;;10443802;28;20555;-50
2021/03/27 22:50:52;;;;;;;2.20;1.25;;;7.40;99.90;;;;;;10444073;28;20037;-50
2021/03/27 22:56:27;;;;;;;1.30;0.68;;;7.70;99.90;;;;;;10442971;28;20072;-50
2021/03/27 23:01:58;;;;;;;4.63;1.17;;;7.60;99.90;;;;;;10437324;28;20406;-50
2021/03/27 23:07:45;;;;;;;0.68;0.40;;;7.60;99.90;;;;;;10443367;28;20037;-50
2021/03/27 23:13:19;;;;;;;4.68;1.08;;;7.50;99.90;;;;;;10440381;28;20037;-50
2021/03/27 23:18:44;;;;;;;2.08;0.57;;;7.50;99.90;;;;;;10429450;28;20966;-50
2021/03/27 23:25:02;;;;;;;4.07;1.08;;;7.40;99.90;;;;;;10400461;28;20111;-50
2021/03/27 23:30:38;;;;;;;6.15;1.08;;;7.40;99.90;;;;;;10352313;28;20065;-50
2021/03/27 23:36:05;;;;;;;2.22;0.45;;;7.40;99.90;;;;;;10439810;28;20140;-50
2021/03/27 23:42:01;;;;;;;2.22;0.82;;;7.40;99.90;;;;;;10438072;28;20489;-50
2021/03/27 23:47:28;;;;;;;2.22;0.43;;;7.60;99.90;;;;;;10422041;28;20041;-50
2021/03/27 23:52:52;;;;;;;2.72;0.38;;;7.60;99.90;;;;;;10435455;28;20056;-50
2021/03/27 23:58:22;;;;;;;2.33;0.70;;;7.70;99.90;;;;;;10442324;28;20040;-50
